sensor_id;sensor_type;location;lat;lon;timestamp;temperature;humidity
18648;DHT22;9453;50.294;18.644;2023-02-15T05:02:09;4.20;99.90
18648;DHT22;9453;50.294;18.644;2023-02-15T05:04:37;4.20;99.90
18648;DHT22;9453;50.294;18.644;2023-02-15T05:07:04;4.20;99.90
18648;DHT22;9453;50.294;18.644;2023-02-15T05:09:31;4.20;99.90
18648;DHT22;9453;50.294;18.644;2023-02-15T05:11:58;4.10;99.90
18648;DHT22;9453;50.294;18.644;2023-02-15T05:14:25;4.20;99.90
18648;DHT22;9453;50.294;18.644;2023-02-15T05:16:55;3.90;99.90
18648;DHT22;9453;50.294;18.644;2023-02-15T05:19:28;3.80;99.90
18648;DHT22;9453;50.294;18.644;2023-02-15T05:21:55;3.80;99.90
18648;DHT22;9453;50.294;18.644;2023-02-15T05:24:22;3.90;99.90
18648;DHT22;9453;50.294;18.644;2023-02-15T05:27:11;3.70;99.90
18648;DHT22;9453;50.294;18.644;2023-02-15T05:29:56;3.70;99.90
18648;DHT22;9453;50.294;18.644;2023-02-15T05:32:23;3.80;99.90
18648;DHT22;9453;50.294;18.644;2023-02-15T05:34:53;3.70;99.90
18648;DHT22;9453;50.294;18.644;2023-02-15T05:37:19;3.80;99.90
18648;DHT22;9453;50.294;18.644;2023-02-15T05:39:46;3.80;99.90
18648;DHT22;9453;50.294;18.644;2023-02-15T05:42:14;3.80;99.90
18648;DHT22;9453;50.294;18.644;2023-02-15T05:44:40;3.80;99.90
18648;DHT22;9453;50.294;18.644;2023-02-15T05:47:08;3.90;99.90
18648;DHT22;9453;50.294;18.644;2023-02-15T05:49:35;3.80;99.90
18648;DHT22;9453;50.294;18.644;2023-02-15T05:52:04;3.80;99.90
18648;DHT22;9453;50.294;18.644;2023-02-15T05:54:31;3.80;99.90
18648;DHT22;9453;50.294;18.644;2023-02-15T05:56:58;3.80;99.90
18648;DHT22;9453;50.294;18.644;2023-02-15T05:59:25;3.80;99.90
18648;DHT22;9453;50.294;18.644;2023-02-15T06:01:52;3.80;99.90
18648;DHT22;9453;50.294;18.644;2023-02-15T06:04:19;3.90;99.90
18648;DHT22;9453;50.294;18.644;2023-02-15T06:09:25;3.80;99.90
18648;DHT22;9453;50.294;18.644;2023-02-15T06:15:14;3.60;99.90
18648;DHT22;9453;50.294;18.644;2023-02-15T06:17:41;3.70;99.90
18648;DHT22;9453;50.294;18.644;2023-02-15T06:20:09;3.80;99.90
18648;DHT22;9453;50.294;18.644;2023-02-15T06:22:37;3.70;99.90
18648;DHT22;9453;50.294;18.644;2023-02-15T06:25:05;3.70;99.90
18648;DHT22;9453;50.294;18.644;2023-02-15T06:27:35;3.80;99.90
18648;DHT22;9453;50.294;18.644;2023-02-15T06:30:04;3.80;99.90
18648;DHT22;9453;50.294;18.644;2023-02-15T06:32:31;3.90;99.90
18648;DHT22;9453;50.294;18.644;2023-02-15T06:34:58;4.00;99.90
18648;DHT22;9453;50.294;18.644;2023-02-15T06:37:25;3.90;99.90
18648;DHT22;9453;50.294;18.644;2023-02-15T06:39:52;3.90;99.90
18648;DHT22;9453;50.294;18.644;2023-02-15T06:42:20;3.80;99.90
18648;DHT22;9453;50.294;18.644;2023-02-15T06:44:47;3.70;99.90
18648;DHT22;9453;50.294;18.644;2023-02-15T06:47:15;3.90;99.90
18648;DHT22;9453;50.294;18.644;2023-02-15T06:49:42;3.90;99.90
18648;DHT22;9453;50.294;18.644;2023-02-15T06:52:09;3.90;99.90
18648;DHT22;9453;50.294;18.644;2023-02-15T06:54:36;4.00;99.90
18648;DHT22;9453;50.294;18.644;2023-02-15T06:57:03;4.00;99.90
18648;DHT22;9453;50.294;18.644;2023-02-15T06:59:31;4.10;99.90
18648;DHT22;9453;50.294;18.644;2023-02-15T07:01:58;4.20;99.90
18648;DHT22;9453;50.294;18.644;2023-02-15T07:04:25;4.30;99.90
18648;DHT22;9453;50.294;18.644;2023-02-15T07:06:54;4.20;99.90
18648;DHT22;9453;50.294;18.644;2023-02-15T07:09:21;4.30;99.90
18648;DHT22;9453;50.294;18.644;2023-02-15T07:11:48;4.30;99.90
18648;DHT22;9453;50.294;18.644;2023-02-15T07:14:34;4.30;99.90
18648;DHT22;9453;50.294;18.644;2023-02-15T07:17:02;4.30;99.90
18648;DHT22;9453;50.294;18.644;2023-02-15T07:19:29;4.30;99.90
18648;DHT22;9453;50.294;18.644;2023-02-15T07:21:56;4.30;99.90
18648;DHT22;9453;50.294;18.644;2023-02-15T07:24:23;4.40;99.90
18648;DHT22;9453;50.294;18.644;2023-02-15T07:26:50;4.40;99.90
18648;DHT22;9453;50.294;18.644;2023-02-15T07:29:17;4.60;99.90
18648;DHT22;9453;50.294;18.644;2023-02-15T07:31:45;4.60;99.90
18648;DHT22;9453;50.294;18.644;2023-02-15T07:34:12;4.50;99.90
18648;DHT22;9453;50.294;18.644;2023-02-15T07:36:39;4.50;99.90
18648;DHT22;9453;50.294;18.644;2023-02-15T07:39:06;4.60;99.90
18648;DHT22;9453;50.294;18.644;2023-02-15T07:41:33;4.70;99.90
18648;DHT22;9453;50.294;18.644;2023-02-15T07:44:00;4.70;99.90
18648;DHT22;9453;50.294;18.644;2023-02-15T07:46:27;4.90;99.90
18648;DHT22;9453;50.294;18.644;2023-02-15T07:48:57;4.80;99.90
18648;DHT22;9453;50.294;18.644;2023-02-15T07:51:24;4.90;99.90
18648;DHT22;9453;50.294;18.644;2023-02-15T07:53:51;4.90;99.90
18648;DHT22;9453;50.294;18.644;2023-02-15T07:56:18;4.90;99.90
18648;DHT22;9453;50.294;18.644;2023-02-15T07:58:45;4.90;99.90
18648;DHT22;9453;50.294;18.644;2023-02-15T08:01:18;4.90;99.90
18648;DHT22;9453;50.294;18.644;2023-02-15T08:03:46;4.80;99.90
18648;DHT22;9453;50.294;18.644;2023-02-15T08:06:15;4.80;99.90
18648;DHT22;9453;50.294;18.644;2023-02-15T08:08:42;4.90;99.90
18648;DHT22;9453;50.294;18.644;2023-02-15T08:11:16;5.00;99.90
18648;DHT22;9453;50.294;18.644;2023-02-15T08:13:53;5.00;99.90
18648;DHT22;9453;50.294;18.644;2023-02-15T08:16:22;4.90;99.90
18648;DHT22;9453;50.294;18.644;2023-02-15T08:18:50;4.80;99.90
18648;DHT22;9453;50.294;18.644;2023-02-15T08:21:19;5.00;99.90
18648;DHT22;9453;50.294;18.644;2023-02-15T08:23:46;5.10;99.90
18648;DHT22;9453;50.294;18.644;2023-02-15T08:26:13;5.10;99.90
18648;DHT22;9453;50.294;18.644;2023-02-15T08:28:42;5.20;99.90
18648;DHT22;9453;50.294;18.644;2023-02-15T08:31:11;5.30;99.90
18648;DHT22;9453;50.294;18.644;2023-02-15T08:33:40;5.20;99.90
18648;DHT22;9453;50.294;18.644;2023-02-15T08:36:09;5.20;99.90
18648;DHT22;9453;50.294;18.644;2023-02-15T08:38:38;5.30;99.90
18648;DHT22;9453;50.294;18.644;2023-02-15T08:41:13;5.30;99.90
18648;DHT22;9453;50.294;18.644;2023-02-15T08:43:41;5.30;99.90
18648;DHT22;9453;50.294;18.644;2023-02-15T08:46:10;5.30;99.90
18648;DHT22;9453;50.294;18.644;2023-02-15T08:48:37;5.40;99.90
18648;DHT22;9453;50.294;18.644;2023-02-15T08:51:06;5.40;99.90
18648;DHT22;9453;50.294;18.644;2023-02-15T08:53:33;5.50;99.90
18648;DHT22;9453;50.294;18.644;2023-02-15T08:56:01;5.50;99.90
18648;DHT22;9453;50.294;18.644;2023-02-15T08:58:29;5.60;99.90
18648;DHT22;9453;50.294;18.644;2023-02-15T09:00:57;5.60;99.90
18648;DHT22;9453;50.294;18.644;2023-02-15T09:03:24;5.60;99.90
18648;DHT22;9453;50.294;18.644;2023-02-15T09:05:57;5.70;99.90
18648;DHT22;9453;50.294;18.644;2023-02-15T09:08:24;5.70;99.90
18648;DHT22;9453;50.294;18.644;2023-02-15T09:10:51;5.70;99.90
18648;DHT22;9453;50.294;18.644;2023-02-15T09:13:20;5.80;99.90
18648;DHT22;9453;50.294;18.644;2023-02-15T09:15:47;5.80;99.90
18648;DHT22;9453;50.294;18.644;2023-02-15T09:18:14;5.80;99.90
18648;DHT22;9453;50.294;18.644;2023-02-15T09:20:43;5.80;99.90
18648;DHT22;9453;50.294;18.644;2023-02-15T09:23:11;5.80;99.90
18648;DHT22;9453;50.294;18.644;2023-02-15T09:25:38;5.90;99.90
18648;DHT22;9453;50.294;18.644;2023-02-15T09:28:05;6.00;99.90
18648;DHT22;9453;50.294;18.644;2023-02-15T09:30:33;6.20;99.90
18648;DHT22;9453;50.294;18.644;2023-02-15T09:33:01;6.30;99.70
18648;DHT22;9453;50.294;18.644;2023-02-15T09:35:28;6.40;99.40
18648;DHT22;9453;50.294;18.644;2023-02-15T09:37:55;6.40;98.50
18648;DHT22;9453;50.294;18.644;2023-02-15T09:40:22;6.50;98.10
18648;DHT22;9453;50.294;18.644;2023-02-15T09:43:11;6.60;98.10
18648;DHT22;9453;50.294;18.644;2023-02-15T09:46:10;6.70;98.20
18648;DHT22;9453;50.294;18.644;2023-02-15T09:48:40;6.70;97.60
18648;DHT22;9453;50.294;18.644;2023-02-15T09:51:25;6.90;97.50
18648;DHT22;9453;50.294;18.644;2023-02-15T09:54:09;7.00;97.00
18648;DHT22;9453;50.294;18.644;2023-02-15T09:56:43;7.00;96.40
18648;DHT22;9453;50.294;18.644;2023-02-15T09:59:19;7.10;95.70
18648;DHT22;9453;50.294;18.644;2023-02-15T10:01:58;7.10;95.40
18648;DHT22;9453;50.294;18.644;2023-02-15T10:04:40;7.30;94.90
18648;DHT22;9453;50.294;18.644;2023-02-15T10:07:26;7.20;94.40
18648;DHT22;9453;50.294;18.644;2023-02-15T10:10:05;7.30;94.10
18648;DHT22;9453;50.294;18.644;2023-02-15T10:12:48;7.30;93.60
18648;DHT22;9453;50.294;18.644;2023-02-15T10:15:28;7.40;93.50
18648;DHT22;9453;50.294;18.644;2023-02-15T10:18:06;7.50;93.60
18648;DHT22;9453;50.294;18.644;2023-02-15T10:20:49;7.60;93.60
18648;DHT22;9453;50.294;18.644;2023-02-15T10:23:39;7.60;93.20
18648;DHT22;9453;50.294;18.644;2023-02-15T10:26:15;7.70;93.00
18648;DHT22;9453;50.294;18.644;2023-02-15T10:28:46;7.70;92.80
18648;DHT22;9453;50.294;18.644;2023-02-15T10:31:22;7.70;92.40
18648;DHT22;9453;50.294;18.644;2023-02-15T10:34:06;7.80;92.40
18648;DHT22;9453;50.294;18.644;2023-02-15T10:36:56;7.80;92.30
18648;DHT22;9453;50.294;18.644;2023-02-15T10:39:30;7.80;92.00
18648;DHT22;9453;50.294;18.644;2023-02-15T10:42:10;7.80;91.90
18648;DHT22;9453;50.294;18.644;2023-02-15T10:44:52;7.90;91.70
18648;DHT22;9453;50.294;18.644;2023-02-15T10:47:38;8.00;91.50
18648;DHT22;9453;50.294;18.644;2023-02-15T10:50:23;8.00;91.30
18648;DHT22;9453;50.294;18.644;2023-02-15T10:53:08;8.10;91.00
18648;DHT22;9453;50.294;18.644;2023-02-15T10:55:47;8.10;90.80
18648;DHT22;9453;50.294;18.644;2023-02-15T10:58:29;8.20;90.60
18648;DHT22;9453;50.294;18.644;2023-02-15T11:01:02;8.20;90.40
18648;DHT22;9453;50.294;18.644;2023-02-15T11:03:42;8.20;90.40
18648;DHT22;9453;50.294;18.644;2023-02-15T11:06:14;8.30;90.50
18648;DHT22;9453;50.294;18.644;2023-02-15T11:08:46;8.30;90.10
18648;DHT22;9453;50.294;18.644;2023-02-15T11:11:19;8.40;90.20
18648;DHT22;9453;50.294;18.644;2023-02-15T11:13:49;8.50;90.10
18648;DHT22;9453;50.294;18.644;2023-02-15T11:16:22;8.50;90.00
18648;DHT22;9453;50.294;18.644;2023-02-15T11:18:53;8.50;89.10
18648;DHT22;9453;50.294;18.644;2023-02-15T11:21:24;8.60;89.50
18648;DHT22;9453;50.294;18.644;2023-02-15T11:23:53;8.60;88.60
18648;DHT22;9453;50.294;18.644;2023-02-15T11:26:26;8.60;88.70
18648;DHT22;9453;50.294;18.644;2023-02-15T11:28:58;8.60;88.20
18648;DHT22;9453;50.294;18.644;2023-02-15T11:31:27;8.70;88.00
18648;DHT22;9453;50.294;18.644;2023-02-15T11:34:03;8.80;87.40
18648;DHT22;9453;50.294;18.644;2023-02-15T11:36:37;8.80;86.90
18648;DHT22;9453;50.294;18.644;2023-02-15T11:39:10;8.80;86.20
18648;DHT22;9453;50.294;18.644;2023-02-15T11:41:41;8.90;86.00
18648;DHT22;9453;50.294;18.644;2023-02-15T11:44:14;8.90;86.10
18648;DHT22;9453;50.294;18.644;2023-02-15T11:46:43;9.00;85.50
18648;DHT22;9453;50.294;18.644;2023-02-15T11:49:20;9.00;84.80
18648;DHT22;9453;50.294;18.644;2023-02-15T11:51:50;9.10;85.10
18648;DHT22;9453;50.294;18.644;2023-02-15T11:54:19;9.10;84.80
18648;DHT22;9453;50.294;18.644;2023-02-15T11:56:48;9.20;84.20
18648;DHT22;9453;50.294;18.644;2023-02-15T11:59:21;9.20;84.70
18648;DHT22;9453;50.294;18.644;2023-02-15T12:01:51;9.20;83.50
18648;DHT22;9453;50.294;18.644;2023-02-15T12:04:22;9.20;83.50
18648;DHT22;9453;50.294;18.644;2023-02-15T12:06:55;9.30;82.90
18648;DHT22;9453;50.294;18.644;2023-02-15T12:09:31;9.30;82.80
18648;DHT22;9453;50.294;18.644;2023-02-15T12:12:19;9.30;82.50
18648;DHT22;9453;50.294;18.644;2023-02-15T12:14:51;9.20;82.40
18648;DHT22;9453;50.294;18.644;2023-02-15T12:17:21;9.30;82.80
18648;DHT22;9453;50.294;18.644;2023-02-15T12:19:48;9.30;82.30
18648;DHT22;9453;50.294;18.644;2023-02-15T12:22:22;9.30;82.10
18648;DHT22;9453;50.294;18.644;2023-02-15T12:24:52;9.30;81.80
18648;DHT22;9453;50.294;18.644;2023-02-15T12:27:21;9.30;82.00
18648;DHT22;9453;50.294;18.644;2023-02-15T12:29:50;9.40;83.10
18648;DHT22;9453;50.294;18.644;2023-02-15T12:32:19;9.40;82.30
18648;DHT22;9453;50.294;18.644;2023-02-15T12:34:50;9.40;82.40
18648;DHT22;9453;50.294;18.644;2023-02-15T12:37:21;9.40;81.90
18648;DHT22;9453;50.294;18.644;2023-02-15T12:39:54;9.40;81.60
18648;DHT22;9453;50.294;18.644;2023-02-15T12:42:22;9.50;81.80
18648;DHT22;9453;50.294;18.644;2023-02-15T12:44:55;9.40;81.60
18648;DHT22;9453;50.294;18.644;2023-02-15T12:47:22;9.40;81.40
18648;DHT22;9453;50.294;18.644;2023-02-15T12:50:10;9.40;81.70
18648;DHT22;9453;50.294;18.644;2023-02-15T12:52:45;9.50;81.80
18648;DHT22;9453;50.294;18.644;2023-02-15T12:55:21;9.50;81.40
18648;DHT22;9453;50.294;18.644;2023-02-15T12:57:48;9.50;81.40
18648;DHT22;9453;50.294;18.644;2023-02-15T13:00:27;9.50;81.50
18648;DHT22;9453;50.294;18.644;2023-02-15T13:02:58;9.50;81.30
18648;DHT22;9453;50.294;18.644;2023-02-15T13:05:31;9.50;81.10
18648;DHT22;9453;50.294;18.644;2023-02-15T13:08:02;9.50;81.30
18648;DHT22;9453;50.294;18.644;2023-02-15T13:10:31;9.50;82.00
18648;DHT22;9453;50.294;18.644;2023-02-15T13:13:00;9.40;82.20
18648;DHT22;9453;50.294;18.644;2023-02-15T13:15:34;9.50;82.60
18648;DHT22;9453;50.294;18.644;2023-02-15T13:18:03;9.50;82.30
18648;DHT22;9453;50.294;18.644;2023-02-15T13:20:32;9.50;81.40
18648;DHT22;9453;50.294;18.644;2023-02-15T13:23:06;9.40;79.50
18648;DHT22;9453;50.294;18.644;2023-02-15T13:25:42;9.50;80.00
18648;DHT22;9453;50.294;18.644;2023-02-15T13:28:14;9.40;80.00
18648;DHT22;9453;50.294;18.644;2023-02-15T13:30:45;9.40;79.60
18648;DHT22;9453;50.294;18.644;2023-02-15T13:33:18;9.40;79.40
18648;DHT22;9453;50.294;18.644;2023-02-15T13:35:50;9.40;79.40
18648;DHT22;9453;50.294;18.644;2023-02-15T13:38:54;9.40;79.50
18648;DHT22;9453;50.294;18.644;2023-02-15T13:41:29;9.30;79.40
18648;DHT22;9453;50.294;18.644;2023-02-15T13:44:05;9.30;79.40
18648;DHT22;9453;50.294;18.644;2023-02-15T13:46:46;9.30;79.40
18648;DHT22;9453;50.294;18.644;2023-02-15T13:49:27;9.30;79.40
18648;DHT22;9453;50.294;18.644;2023-02-15T13:52:04;9.30;79.30
18648;DHT22;9453;50.294;18.644;2023-02-15T13:54:49;9.30;79.40
18648;DHT22;9453;50.294;18.644;2023-02-15T13:57:36;9.30;79.40
18648;DHT22;9453;50.294;18.644;2023-02-15T14:00:15;9.40;79.50
18648;DHT22;9453;50.294;18.644;2023-02-15T14:03:28;9.40;80.20
18648;DHT22;9453;50.294;18.644;2023-02-15T14:06:42;9.40;79.10
18648;DHT22;9453;50.294;18.644;2023-02-15T14:09:31;9.40;78.90
18648;DHT22;9453;50.294;18.644;2023-02-15T14:12:36;9.30;78.90
18648;DHT22;9453;50.294;18.644;2023-02-15T14:15:28;9.30;79.40
18648;DHT22;9453;50.294;18.644;2023-02-15T14:18:07;9.30;79.40
18648;DHT22;9453;50.294;18.644;2023-02-15T14:20:47;9.30;79.40
18648;DHT22;9453;50.294;18.644;2023-02-15T14:23:28;9.30;79.40
18648;DHT22;9453;50.294;18.644;2023-02-15T14:26:03;9.30;79.40
18648;DHT22;9453;50.294;18.644;2023-02-15T14:28:42;9.30;79.40
18648;DHT22;9453;50.294;18.644;2023-02-15T14:31:12;9.40;80.00
18648;DHT22;9453;50.294;18.644;2023-02-15T14:33:41;9.40;80.20
18648;DHT22;9453;50.294;18.644;2023-02-15T14:36:14;9.40;80.10
18648;DHT22;9453;50.294;18.644;2023-02-15T14:38:54;9.40;79.90
18648;DHT22;9453;50.294;18.644;2023-02-15T14:41:27;9.40;79.50
18648;DHT22;9453;50.294;18.644;2023-02-15T14:44:04;9.40;80.30
18648;DHT22;9453;50.294;18.644;2023-02-15T14:46:39;9.40;80.80
18648;DHT22;9453;50.294;18.644;2023-02-15T14:49:12;9.40;81.20
18648;DHT22;9453;50.294;18.644;2023-02-15T14:52:03;9.40;81.90
18648;DHT22;9453;50.294;18.644;2023-02-15T14:54:53;9.30;82.10
18648;DHT22;9453;50.294;18.644;2023-02-15T14:57:26;9.20;81.70
18648;DHT22;9453;50.294;18.644;2023-02-15T14:59:56;9.20;81.00
18648;DHT22;9453;50.294;18.644;2023-02-15T15:02:26;9.10;80.90
18648;DHT22;9453;50.294;18.644;2023-02-15T15:05:02;9.00;80.90
18648;DHT22;9453;50.294;18.644;2023-02-15T15:07:41;8.90;81.20
18648;DHT22;9453;50.294;18.644;2023-02-15T15:10:35;8.90;81.50
18648;DHT22;9453;50.294;18.644;2023-02-15T15:13:36;8.80;82.00
18648;DHT22;9453;50.294;18.644;2023-02-15T15:16:29;8.70;82.40
18648;DHT22;9453;50.294;18.644;2023-02-15T15:18:58;8.60;82.90
18648;DHT22;9453;50.294;18.644;2023-02-15T15:21:56;8.50;83.50
18648;DHT22;9453;50.294;18.644;2023-02-15T15:24:49;8.30;83.70
18648;DHT22;9453;50.294;18.644;2023-02-15T15:27:42;8.20;84.00
18648;DHT22;9453;50.294;18.644;2023-02-15T15:42:49;7.80;87.70
18648;DHT22;9453;50.294;18.644;2023-02-15T15:45:43;7.60;88.00
18648;DHT22;9453;50.294;18.644;2023-02-15T15:48:30;7.50;88.30
18648;DHT22;9453;50.294;18.644;2023-02-15T15:51:01;7.40;88.80
18648;DHT22;9453;50.294;18.644;2023-02-15T15:53:33;7.30;89.00
18648;DHT22;9453;50.294;18.644;2023-02-15T15:56:04;7.30;89.50
18648;DHT22;9453;50.294;18.644;2023-02-15T15:58:33;7.20;89.80
18648;DHT22;9453;50.294;18.644;2023-02-15T16:01:05;7.10;89.90
18648;DHT22;9453;50.294;18.644;2023-02-15T16:03:35;7.00;90.20
18648;DHT22;9453;50.294;18.644;2023-02-15T16:06:03;6.90;90.40
18648;DHT22;9453;50.294;18.644;2023-02-15T16:08:32;6.80;90.50
18648;DHT22;9453;50.294;18.644;2023-02-15T16:11:09;6.70;90.70
18648;DHT22;9453;50.294;18.644;2023-02-15T16:13:40;6.60;90.90
18648;DHT22;9453;50.294;18.644;2023-02-15T16:16:07;6.60;91.20
18648;DHT22;9453;50.294;18.644;2023-02-15T16:18:37;6.50;91.40
18648;DHT22;9453;50.294;18.644;2023-02-15T16:21:20;6.40;91.40
18648;DHT22;9453;50.294;18.644;2023-02-15T16:24:14;6.40;91.70
18648;DHT22;9453;50.294;18.644;2023-02-15T16:26:59;6.30;92.10
18648;DHT22;9453;50.294;18.644;2023-02-15T16:29:34;6.30;92.30
18648;DHT22;9453;50.294;18.644;2023-02-15T16:32:03;6.10;92.50
18648;DHT22;9453;50.294;18.644;2023-02-15T16:34:32;6.00;92.70
18648;DHT22;9453;50.294;18.644;2023-02-15T16:37:20;6.00;93.00
18648;DHT22;9453;50.294;18.644;2023-02-15T16:39:49;6.00;93.20
18648;DHT22;9453;50.294;18.644;2023-02-15T16:42:17;5.90;93.40
18648;DHT22;9453;50.294;18.644;2023-02-15T16:44:47;5.80;93.50
18648;DHT22;9453;50.294;18.644;2023-02-15T16:47:17;5.70;93.60
18648;DHT22;9453;50.294;18.644;2023-02-15T16:49:48;5.70;94.00
18648;DHT22;9453;50.294;18.644;2023-02-15T16:52:22;5.60;94.10
18648;DHT22;9453;50.294;18.644;2023-02-15T16:54:55;5.60;94.30
18648;DHT22;9453;50.294;18.644;2023-02-15T16:57:25;5.60;94.50
18648;DHT22;9453;50.294;18.644;2023-02-15T16:59:56;5.50;94.60
18648;DHT22;9453;50.294;18.644;2023-02-15T17:02:26;5.40;94.70
18648;DHT22;9453;50.294;18.644;2023-02-15T17:05:14;5.40;95.00
18648;DHT22;9453;50.294;18.644;2023-02-15T17:08:04;5.40;95.20
18648;DHT22;9453;50.294;18.644;2023-02-15T17:10:34;5.30;95.30
18648;DHT22;9453;50.294;18.644;2023-02-15T17:13:03;5.20;95.40
18648;DHT22;9453;50.294;18.644;2023-02-15T17:15:38;5.20;95.60
18648;DHT22;9453;50.294;18.644;2023-02-15T17:18:09;5.20;95.80
18648;DHT22;9453;50.294;18.644;2023-02-15T17:20:39;5.10;95.90
18648;DHT22;9453;50.294;18.644;2023-02-15T17:23:22;5.10;96.10
18648;DHT22;9453;50.294;18.644;2023-02-15T17:25:51;5.00;96.20
18648;DHT22;9453;50.294;18.644;2023-02-15T17:28:20;5.00;96.80
18648;DHT22;9453;50.294;18.644;2023-02-15T17:30:49;5.00;96.80
18648;DHT22;9453;50.294;18.644;2023-02-15T17:33:22;5.00;96.90
18648;DHT22;9453;50.294;18.644;2023-02-15T17:36:05;4.90;97.00
18648;DHT22;9453;50.294;18.644;2023-02-15T17:38:36;4.90;97.20
18648;DHT22;9453;50.294;18.644;2023-02-15T17:41:03;4.90;97.20
18648;DHT22;9453;50.294;18.644;2023-02-15T17:43:30;4.80;97.40
18648;DHT22;9453;50.294;18.644;2023-02-15T17:45:58;4.80;97.60
18648;DHT22;9453;50.294;18.644;2023-02-15T17:48:30;4.80;97.70
18648;DHT22;9453;50.294;18.644;2023-02-15T17:50:58;4.70;97.90
18648;DHT22;9453;50.294;18.644;2023-02-15T17:53:25;4.70;97.90
18648;DHT22;9453;50.294;18.644;2023-02-15T17:55:54;4.60;97.90
18648;DHT22;9453;50.294;18.644;2023-02-15T17:58:20;4.60;98.10
18648;DHT22;9453;50.294;18.644;2023-02-15T18:00:49;4.50;98.30
18648;DHT22;9453;50.294;18.644;2023-02-15T18:03:40;4.50;98.40
18648;DHT22;9453;50.294;18.644;2023-02-15T18:06:25;4.40;98.60
18648;DHT22;9453;50.294;18.644;2023-02-15T18:09:11;4.40;98.80
18648;DHT22;9453;50.294;18.644;2023-02-15T18:11:57;4.30;99.20
18648;DHT22;9453;50.294;18.644;2023-02-15T18:14:24;4.30;99.30
18648;DHT22;9453;50.294;18.644;2023-02-15T18:16:51;4.30;99.80
18648;DHT22;9453;50.294;18.644;2023-02-15T18:19:21;4.20;99.60
18648;DHT22;9453;50.294;18.644;2023-02-15T18:21:48;4.20;99.80
18648;DHT22;9453;50.294;18.644;2023-02-15T18:24:18;4.30;99.90
18648;DHT22;9453;50.294;18.644;2023-02-15T18:26:46;4.00;99.90
18648;DHT22;9453;50.294;18.644;2023-02-15T18:29:15;4.10;99.90
18648;DHT22;9453;50.294;18.644;2023-02-15T18:31:43;4.00;99.90
18648;DHT22;9453;50.294;18.644;2023-02-15T18:34:22;4.00;99.90
18648;DHT22;9453;50.294;18.644;2023-02-15T18:36:50;4.00;99.90
18648;DHT22;9453;50.294;18.644;2023-02-15T18:39:27;3.90;99.90
18648;DHT22;9453;50.294;18.644;2023-02-15T18:41:55;3.80;99.90
18648;DHT22;9453;50.294;18.644;2023-02-15T18:44:25;3.80;99.90
18648;DHT22;9453;50.294;18.644;2023-02-15T18:46:52;3.70;99.90
18648;DHT22;9453;50.294;18.644;2023-02-15T18:49:19;3.70;99.90
18648;DHT22;9453;50.294;18.644;2023-02-15T18:51:46;3.60;99.90
18648;DHT22;9453;50.294;18.644;2023-02-15T18:54:17;3.50;99.90
18648;DHT22;9453;50.294;18.644;2023-02-15T18:56:50;3.50;99.90
18648;DHT22;9453;50.294;18.644;2023-02-15T18:59:18;3.40;99.90
18648;DHT22;9453;50.294;18.644;2023-02-15T19:01:46;3.40;99.90
18648;DHT22;9453;50.294;18.644;2023-02-15T19:04:19;3.50;99.90
18648;DHT22;9453;50.294;18.644;2023-02-15T19:06:48;3.30;99.90
18648;DHT22;9453;50.294;18.644;2023-02-15T19:09:18;3.30;99.90
18648;DHT22;9453;50.294;18.644;2023-02-15T19:11:49;3.30;99.90
18648;DHT22;9453;50.294;18.644;2023-02-15T19:14:23;3.20;99.90
18648;DHT22;9453;50.294;18.644;2023-02-15T19:16:53;3.20;99.90
18648;DHT22;9453;50.294;18.644;2023-02-15T19:19:21;3.10;99.90
18648;DHT22;9453;50.294;18.644;2023-02-15T19:21:48;3.10;99.90
18648;DHT22;9453;50.294;18.644;2023-02-15T19:24:17;3.10;99.90
18648;DHT22;9453;50.294;18.644;2023-02-15T19:26:45;3.10;99.90
18648;DHT22;9453;50.294;18.644;2023-02-15T19:29:24;3.10;99.90
18648;DHT22;9453;50.294;18.644;2023-02-15T19:32:00;3.10;99.90
18648;DHT22;9453;50.294;18.644;2023-02-15T19:34:27;3.10;99.90
18648;DHT22;9453;50.294;18.644;2023-02-15T19:36:55;3.00;99.90
18648;DHT22;9453;50.294;18.644;2023-02-15T19:39:24;3.00;99.90
18648;DHT22;9453;50.294;18.644;2023-02-15T19:41:53;3.00;99.90
18648;DHT22;9453;50.294;18.644;2023-02-15T19:44:20;3.00;99.90
18648;DHT22;9453;50.294;18.644;2023-02-15T19:46:47;3.10;99.90
18648;DHT22;9453;50.294;18.644;2023-02-15T19:49:16;3.00;99.90
18648;DHT22;9453;50.294;18.644;2023-02-15T19:51:43;3.20;99.90
18648;DHT22;9453;50.294;18.644;2023-02-15T19:54:20;3.00;99.90
18648;DHT22;9453;50.294;18.644;2023-02-15T19:56:49;3.00;99.90
18648;DHT22;9453;50.294;18.644;2023-02-15T19:59:22;3.10;99.90
18648;DHT22;9453;50.294;18.644;2023-02-15T20:01:49;2.90;99.90
18648;DHT22;9453;50.294;18.644;2023-02-15T20:04:18;3.00;99.90
18648;DHT22;9453;50.294;18.644;2023-02-15T20:06:46;3.10;99.90
18648;DHT22;9453;50.294;18.644;2023-02-15T20:09:19;3.00;99.90
18648;DHT22;9453;50.294;18.644;2023-02-15T20:11:48;3.10;99.90
18648;DHT22;9453;50.294;18.644;2023-02-15T20:14:16;3.00;99.90
18648;DHT22;9453;50.294;18.644;2023-02-15T20:16:43;3.00;99.90
18648;DHT22;9453;50.294;18.644;2023-02-15T20:19:10;3.00;99.90
18648;DHT22;9453;50.294;18.644;2023-02-15T20:21:40;3.00;99.90
18648;DHT22;9453;50.294;18.644;2023-02-15T20:24:12;3.00;99.90
18648;DHT22;9453;50.294;18.644;2023-02-15T20:26:40;3.00;99.90
18648;DHT22;9453;50.294;18.644;2023-02-15T20:29:10;3.10;99.90
18648;DHT22;9453;50.294;18.644;2023-02-15T20:31:38;3.00;99.90
18648;DHT22;9453;50.294;18.644;2023-02-15T20:34:05;3.10;99.90
18648;DHT22;9453;50.294;18.644;2023-02-15T20:36:34;3.10;99.90
18648;DHT22;9453;50.294;18.644;2023-02-15T20:39:10;3.20;99.90
18648;DHT22;9453;50.294;18.644;2023-02-15T20:41:38;3.20;99.90
18648;DHT22;9453;50.294;18.644;2023-02-15T20:44:16;3.20;99.90
18648;DHT22;9453;50.294;18.644;2023-02-15T20:46:44;3.20;99.90
18648;DHT22;9453;50.294;18.644;2023-02-15T20:49:11;3.10;99.90
18648;DHT22;9453;50.294;18.644;2023-02-15T20:51:38;3.20;99.90
18648;DHT22;9453;50.294;18.644;2023-02-15T20:54:16;3.10;99.90
18648;DHT22;9453;50.294;18.644;2023-02-15T20:56:44;3.10;99.90
18648;DHT22;9453;50.294;18.644;2023-02-15T20:59:22;3.10;99.90
18648;DHT22;9453;50.294;18.644;2023-02-15T21:01:53;3.10;99.90
18648;DHT22;9453;50.294;18.644;2023-02-15T21:04:23;3.00;99.90
18648;DHT22;9453;50.294;18.644;2023-02-15T21:06:50;3.10;99.90
18648;DHT22;9453;50.294;18.644;2023-02-15T21:09:19;3.10;99.90
18648;DHT22;9453;50.294;18.644;2023-02-15T21:11:47;3.20;99.90
18648;DHT22;9453;50.294;18.644;2023-02-15T21:14:17;3.30;99.90
18648;DHT22;9453;50.294;18.644;2023-02-15T21:16:45;3.20;99.90
18648;DHT22;9453;50.294;18.644;2023-02-15T21:19:14;3.10;99.90
18648;DHT22;9453;50.294;18.644;2023-02-15T21:21:42;3.10;99.90
18648;DHT22;9453;50.294;18.644;2023-02-15T21:24:13;3.10;99.90
18648;DHT22;9453;50.294;18.644;2023-02-15T21:26:45;3.10;99.90
18648;DHT22;9453;50.294;18.644;2023-02-15T21:29:15;3.10;99.90
18648;DHT22;9453;50.294;18.644;2023-02-15T21:31:42;3.10;99.90
18648;DHT22;9453;50.294;18.644;2023-02-15T21:34:09;3.10;99.90
18648;DHT22;9453;50.294;18.644;2023-02-15T21:36:37;3.00;99.90
18648;DHT22;9453;50.294;18.644;2023-02-15T21:39:05;3.00;99.90